Time;durP1;ratioP1;P1;durP2;ratioP2;P2;SDS_P1;SDS_P2;PMS_P1;PMS_P2;Temp;Humidity;BMP_temperature;BMP_pressure;BME280_temperature;BME280_humidity;BME280_pressure;Samples;Min_cycle;Max_cycle;Signal;HPM_P1;HPM_P2
2021/07/22 00:01:05;;;;;;;9.68;8.68;;;;;;;33.42;22.84;94721.06;5034183;28;20052;-54
2021/07/22 00:03:32;;;;;;;9.18;8.00;;;;;;;33.54;22.74;94722.31;5033767;28;20041;-59
2021/07/22 00:06:00;;;;;;;8.40;7.60;;;;;;;33.58;22.81;94723.00;5041209;28;20044;-60
2021/07/22 00:08:28;;;;;;;9.02;8.18;;;;;;;33.34;22.73;94713.56;5052691;28;20056;-56
2021/07/22 00:10:55;;;;;;;8.93;8.02;;;;;;;33.61;22.74;94715.97;5054202;28;20052;-57
2021/07/22 00:13:22;;;;;;;8.65;7.85;;;;;;;33.51;22.83;94709.63;5053017;28;20049;-58
2021/07/22 00:15:49;;;;;;;8.70;7.90;;;;;;;33.48;22.61;94707.00;5033817;28;20045;-58
2021/07/22 00:18:16;;;;;;;8.30;7.50;;;;;;;33.59;22.65;94708.28;5035104;28;20053;-54
2021/07/22 00:20:43;;;;;;;8.35;7.55;;;;;;;33.52;22.91;94708.44;5037972;28;20045;-55
2021/07/22 00:23:12;;;;;;;9.65;7.88;;;;;;;33.43;22.99;94708.28;5037589;28;20049;-57
2021/07/22 00:25:40;;;;;;;8.88;8.07;;;;;;;33.48;23.07;94707.00;5037992;28;20049;-59
2021/07/22 00:28:07;;;;;;;8.50;7.60;;;;;;;33.47;22.74;94702.78;5038034;28;20060;-59
2021/07/22 00:30:35;;;;;;;7.80;7.05;;;;;;;33.45;22.92;94697.78;5037776;28;20041;-60
2021/07/22 00:33:15;;;;;;;10.18;7.78;;;;;;;33.52;23.23;94697.59;5037359;28;20046;-60
2021/07/22 00:35:42;;;;;;;9.13;8.23;;;;;;;33.41;22.91;94692.47;5041958;28;20052;-60
2021/07/22 00:38:09;;;;;;;8.48;7.68;;;;;;;33.43;23.05;94697.44;5058362;28;20048;-59
2021/07/22 00:40:44;;;;;;;8.10;7.28;;;;;;;33.58;23.07;94690.50;5056518;28;20048;-60
2021/07/22 00:43:11;;;;;;;8.32;7.63;;;;;;;33.55;22.77;94688.59;5056098;28;20051;-57
2021/07/22 00:45:39;;;;;;;9.15;7.78;;;;;;;33.53;23.14;94690.97;5039838;28;20455;-55
2021/07/22 00:48:06;;;;;;;8.40;7.68;;;;;;;33.76;22.50;94683.81;5038034;28;20056;-60
2021/07/22 00:50:33;;;;;;;8.30;7.45;;;;;;;33.38;22.85;94693.31;5036856;28;20053;-59
2021/07/22 00:53:02;;;;;;;8.27;7.35;;;;;;;33.46;22.75;94677.63;5036106;28;20432;-59
2021/07/22 00:55:32;;;;;;;8.10;7.40;;;;;;;33.49;23.02;94679.47;5035588;28;20056;-60
2021/07/22 00:58:01;;;;;;;7.45;6.75;;;;;;;33.67;22.74;94687.91;5037746;28;20049;-60
2021/07/22 01:00:31;;;;;;;8.93;7.82;;;;;;;33.60;22.86;94685.41;5036336;28;20045;-62
2021/07/22 01:02:58;;;;;;;8.68;7.78;;;;;;;33.39;22.97;94685.94;5037562;28;20052;-58
2021/07/22 01:05:26;;;;;;;8.35;7.55;;;;;;;33.37;23.42;94691.03;5038639;28;20056;-59
2021/07/22 01:07:54;;;;;;;7.40;6.70;;;;;;;33.35;23.13;94682.56;5056027;28;20044;-60
2021/07/22 01:10:23;;;;;;;8.23;7.45;;;;;;;33.72;22.66;94684.69;5055748;28;20048;-59
2021/07/22 01:12:51;;;;;;;8.05;7.32;;;;;;;33.75;22.32;94682.31;5056635;28;20073;-60
2021/07/22 01:15:18;;;;;;;8.60;7.45;;;;;;;33.49;22.93;94682.19;5040962;28;20051;-60
2021/07/22 01:17:50;;;;;;;7.82;7.10;;;;;;;33.49;22.70;94687.59;5035978;28;20049;-55
2021/07/22 01:20:21;;;;;;;7.80;7.03;;;;;;;33.38;23.08;94695.25;5036666;28;20048;-61
2021/07/22 01:22:51;;;;;;;8.02;7.22;;;;;;;33.45;22.78;94695.06;5036659;28;20071;-57
2021/07/22 01:25:19;;;;;;;7.75;6.95;;;;;;;33.66;22.67;94691.06;5034977;28;20056;-58
2021/07/22 01:27:48;;;;;;;7.93;7.18;;;;;;;33.54;22.72;94689.78;5037328;28;20060;-58
2021/07/22 01:30:17;;;;;;;7.68;6.97;;;;;;;33.38;22.89;94697.97;5035869;28;20041;-60
2021/07/22 01:32:44;;;;;;;7.65;6.95;;;;;;;33.61;22.50;94695.06;5036530;28;20356;-59
2021/07/22 01:35:13;;;;;;;8.13;7.28;;;;;;;33.54;22.83;94684.38;5035601;28;20078;-59
2021/07/22 01:37:43;;;;;;;7.90;7.18;;;;;;;33.62;22.68;94690.41;5056679;28;20041;-60
2021/07/22 01:40:12;;;;;;;7.60;6.90;;;;;;;33.58;22.77;94689.72;5057096;28;20049;-61
2021/07/22 01:42:39;;;;;;;8.85;7.25;;;;;;;33.25;22.97;94689.72;5056149;28;20116;-61
2021/07/22 01:45:09;;;;;;;7.40;6.70;;;;;;;33.43;22.94;94689.31;5043206;28;20053;-58
2021/07/22 01:47:42;;;;;;;7.75;6.90;;;;;;;33.15;23.36;94684.56;5036199;28;20046;-57
2021/07/22 01:50:10;;;;;;;8.38;6.60;;;;;;;33.48;22.65;94696.94;5036260;28;20053;-61
2021/07/22 01:52:41;;;;;;;6.90;6.20;;;;;;;33.29;22.83;94689.63;5036020;28;20052;-59
2021/07/22 01:55:10;;;;;;;7.47;6.78;;;;;;;33.21;23.09;94685.56;5034328;28;20053;-58
2021/07/22 01:57:47;;;;;;;8.40;6.75;;;;;;;33.49;23.05;94687.59;5036939;28;20045;-60
2021/07/22 02:00:15;;;;;;;7.45;6.82;;;;;;;33.40;22.88;94695.59;5035114;28;20049;-61
2021/07/22 02:02:45;;;;;;;7.43;6.73;;;;;;;33.52;23.02;94696.84;5035850;28;20049;-60
2021/07/22 02:05:20;;;;;;;7.18;6.47;;;;;;;33.47;22.85;94684.56;5034477;28;20419;-59
2021/07/22 02:07:47;;;;;;;7.38;6.68;;;;;;;33.37;23.10;94691.03;5035923;28;20056;-59
2021/07/22 02:10:20;;;;;;;7.47;6.78;;;;;;;33.33;23.35;94690.34;5035450;28;20046;-58
2021/07/22 02:12:47;;;;;;;7.72;6.75;;;;;;;33.31;23.34;94681.84;5034901;28;20045;-58
2021/07/22 02:15:19;;;;;;;7.13;6.50;;;;;;;33.45;22.86;94681.53;5033657;28;20060;-62
2021/07/22 02:17:47;;;;;;;7.35;6.65;;;;;;;33.29;23.08;94684.97;5026171;28;20041;-60
2021/07/22 02:20:15;;;;;;;7.47;6.43;;;;;;;33.61;23.02;94684.22;5050079;28;20337;-63
2021/07/22 02:22:45;;;;;;;7.65;6.82;;;;;;;33.28;22.96;94682.69;5034692;28;20368;-58
2021/07/22 02:25:44;;;;;;;7.13;6.53;;;;;;;32.95;23.80;94688.13;5034842;28;20056;-60
2021/07/22 02:28:13;;;;;;;7.50;6.80;;;;;;;33.11;23.56;94680.00;5034613;28;20072;-58
2021/07/22 02:30:40;;;;;;;8.35;6.85;;;;;;;33.23;23.55;94685.91;5034534;28;20053;-61
2021/07/22 02:33:10;;;;;;;7.47;6.70;;;;;;;33.42;22.98;94687.78;5034072;28;20049;-56
2021/07/22 02:35:38;;;;;;;6.85;6.15;;;;;;;33.11;23.65;94695.50;5035684;28;20053;-59
2021/07/22 02:38:24;;;;;;;7.20;6.55;;;;;;;33.34;23.20;94694.59;5035291;28;20060;-60
2021/07/22 02:40:51;;;;;;;7.20;6.50;;;;;;;33.69;22.89;94690.19;5034742;28;20064;-58
2021/07/22 02:43:19;;;;;;;7.00;6.30;;;;;;;33.54;23.42;94699.88;5034950;28;20049;-57
2021/07/22 02:45:47;;;;;;;6.65;6.05;;;;;;;33.52;22.91;94692.19;5033931;28;20045;-55
2021/07/22 02:48:17;;;;;;;6.60;6.05;;;;;;;33.53;23.21;94699.13;5034188;28;20045;-56
2021/07/22 02:50:46;;;;;;;7.10;6.50;;;;;;;33.66;22.81;94697.25;5035125;28;20466;-55
2021/07/22 02:53:14;;;;;;;7.30;6.53;;;;;;;33.66;22.54;94702.66;5033802;28;20163;-54
2021/07/22 02:55:59;;;;;;;7.45;6.75;;;;;;;33.44;23.15;94700.91;5034022;28;20360;-52
2021/07/22 02:58:28;;;;;;;9.13;6.68;;;;;;;33.37;23.43;94708.03;5034966;28;20045;-52
2021/07/22 03:00:55;;;;;;;7.63;6.40;;;;;;;33.36;23.24;94711.19;5033839;28;20383;-55
2021/07/22 03:03:41;;;;;;;8.18;6.88;;;;;;;33.28;23.19;94704.34;5034714;28;20045;-54
2021/07/22 03:06:15;;;;;;;9.82;6.45;;;;;;;33.22;23.43;94706.06;5036700;28;20049;-60
2021/07/22 03:08:44;;;;;;;9.50;6.47;;;;;;;33.51;23.34;94711.56;5034958;28;20056;-55
2021/07/22 03:11:13;;;;;;;7.78;6.60;;;;;;;33.47;23.03;94708.94;5034542;28;20045;-59
2021/07/22 03:13:40;;;;;;;7.88;6.38;;;;;;;33.13;23.74;94703.19;5034513;28;20052;-55
2021/07/22 03:16:11;;;;;;;7.18;6.47;;;;;;;33.24;23.21;94703.69;5034440;28;20059;-56
2021/07/22 03:19:13;;;;;;;7.15;6.45;;;;;;;33.54;23.06;94705.28;5032305;28;20120;-61
2021/07/22 03:22:02;;;;;;;7.38;6.57;;;;;;;33.51;23.20;94706.91;5031428;28;20050;-59
2021/07/22 03:24:44;;;;;;;7.40;6.70;;;;;;;33.16;23.84;94705.06;5034711;28;20041;-58
2021/07/22 03:27:31;;;;;;;7.10;6.40;;;;;;;33.19;23.62;94702.25;5034211;28;20054;-58
2021/07/22 03:30:00;;;;;;;7.45;6.68;;;;;;;33.42;23.64;94704.06;5017179;28;20379;-56
2021/07/22 03:32:28;;;;;;;8.02;6.47;;;;;;;33.54;23.37;94695.22;5033954;28;20061;-58
2021/07/22 03:34:56;;;;;;;7.85;6.47;;;;;;;33.48;23.50;94699.63;5034499;28;20060;-58
2021/07/22 03:37:36;;;;;;;7.65;6.82;;;;;;;33.18;23.52;94699.97;5033300;28;20391;-58
2021/07/22 03:40:09;;;;;;;8.05;6.70;;;;;;;33.19;23.75;94702.25;5034529;28;20045;-59
2021/07/22 03:42:36;;;;;;;8.35;6.97;;;;;;;33.13;23.90;94701.25;5033174;28;20053;-58
2021/07/22 03:45:04;;;;;;;8.45;6.50;;;;;;;33.28;23.86;94698.94;5034353;28;20049;-61
2021/07/22 03:47:35;;;;;;;7.68;6.53;;;;;;;33.45;23.57;94697.78;5033201;28;20359;-59
2021/07/22 03:50:03;;;;;;;8.43;6.90;;;;;;;33.26;23.58;94696.66;5033369;28;20048;-60
2021/07/22 03:52:54;;;;;;;8.77;7.18;;;;;;;33.44;23.67;94695.50;5033192;28;20053;-59
2021/07/22 03:55:26;;;;;;;7.43;6.72;;;;;;;33.40;23.89;94690.94;5037215;28;20052;-61
2021/07/22 03:58:12;;;;;;;7.95;6.93;;;;;;;33.22;24.19;94700.66;5037816;28;20052;-59
2021/07/22 04:00:57;;;;;;;8.05;7.25;;;;;;;33.33;24.09;94706.63;5037129;28;20444;-56
2021/07/22 04:03:38;;;;;;;8.82;6.97;;;;;;;33.04;24.30;94706.47;5038952;28;20606;-59
2021/07/22 04:06:10;;;;;;;9.27;7.50;;;;;;;33.31;23.67;94711.63;5040937;28;20382;-55
2021/07/22 04:08:39;;;;;;;7.93;7.13;;;;;;;33.23;24.25;94713.00;5038006;28;20052;-60
2021/07/22 04:11:34;;;;;;;10.05;7.68;;;;;;;33.14;24.33;94724.44;5036854;28;20053;-58
2021/07/22 04:14:20;;;;;;;8.32;7.32;;;;;;;33.42;23.50;94725.72;5037992;28;20056;-60
2021/07/22 04:17:06;;;;;;;7.78;7.07;;;;;;;33.46;23.75;94726.41;5037317;28;20041;-60
2021/07/22 04:19:53;;;;;;;7.00;6.40;;;;;;;33.49;23.93;94730.19;5037604;28;20060;-59
2021/07/22 04:22:43;;;;;;;8.05;7.32;;;;;;;33.26;24.31;94736.53;5038333;28;20052;-60
2021/07/22 04:25:34;;;;;;;10.20;7.00;;;;;;;33.60;23.48;94731.47;5036855;28;20049;-62
2021/07/22 04:28:08;;;;;;;7.07;6.40;;;;;;;33.51;23.76;94723.16;5036635;28;20056;-58
2021/07/22 04:30:38;;;;;;;7.32;6.63;;;;;;;33.52;24.10;94735.53;5037868;28;20064;-56
2021/07/22 04:33:26;;;;;;;7.50;6.72;;;;;;;33.37;24.27;94728.97;5022607;28;20046;-58
2021/07/22 04:35:59;;;;;;;7.50;6.80;;;;;;;33.49;23.94;94725.53;5042506;28;20443;-59
2021/07/22 04:38:53;;;;;;;7.68;6.25;;;;;;;34.63;22.77;94727.97;5035870;28;20049;-59
2021/07/22 04:41:48;;;;;;;7.80;6.28;;;;;;;34.81;22.21;94722.00;5033150;28;20053;-59
2021/07/22 04:44:34;;;;;;;8.13;6.55;;;;;;;35.42;21.54;94723.66;5018333;28;20329;-58
2021/07/22 04:47:21;;;;;;;8.60;7.07;;;;;;;34.27;22.95;94731.66;5025410;28;20052;-73
2021/07/22 04:50:13;;;;;;;7.95;6.63;;;;;;;33.77;23.90;94734.16;5019133;28;20049;-55
2021/07/22 04:53:03;;;;;;;7.40;6.67;;;;;;;33.74;23.86;94730.34;5016820;28;20050;-64
2021/07/22 04:55:41;;;;;;;7.50;6.35;;;;;;;33.70;24.50;94727.72;5019862;28;20299;-59
2021/07/22 04:58:10;;;;;;;7.50;6.72;;;;;;;33.52;24.30;94730.13;5035703;28;20052;-62
2021/07/22 05:01:00;;;;;;;;;;;;;;;;;;;;;
2021/07/22 05:03:59;;;;;;;7.53;6.75;;;;;;;33.80;23.57;94722.44;5022745;28;20463;-67
2021/07/22 05:06:41;;;;;;;7.50;6.78;;;;;;;33.81;24.15;94729.38;5041729;28;20053;-55
2021/07/22 05:09:28;;;;;;;8.48;6.95;;;;;;;33.71;24.62;94737.38;5036817;28;20387;-71
2021/07/22 05:12:20;;;;;;;7.32;6.50;;;;;;;33.98;23.91;94730.91;5036910;28;20045;-67
2021/07/22 05:15:00;;;;;;;8.60;6.90;;;;;;;33.04;25.68;94734.31;5032416;28;20072;-70
2021/07/22 05:17:53;;;;;;;7.50;6.30;;;;;;;33.94;23.77;94725.59;5032339;28;20052;-74
2021/07/22 05:20:41;;;;;;;7.32;6.50;;;;;;;33.72;24.46;94728.06;5035920;28;20064;-75
2021/07/22 05:23:34;;;;;;;8.60;6.07;;;;;;;34.03;23.77;94733.09;5036078;28;20371;-76
2021/07/22 05:26:21;;;;;;;8.52;6.50;;;;;;;33.83;24.46;94727.00;5020674;28;20049;-77
2021/07/22 05:28:56;;;;;;;6.88;6.28;;;;;;;34.00;24.14;94728.53;5035783;28;20049;-77
2021/07/22 05:31:43;;;;;;;9.32;7.47;;;;;;;33.96;24.05;94725.16;5036737;28;20049;-76
2021/07/22 05:34:18;;;;;;;7.35;6.65;;;;;;;34.14;23.99;94736.28;5037444;28;20050;-76
2021/07/22 05:36:55;;;;;;;8.65;7.18;;;;;;;34.24;24.19;94731.75;5043319;28;20056;-76
2021/07/22 05:39:28;;;;;;;7.30;6.60;;;;;;;34.10;24.30;94730.22;5037336;28;20056;-75
2021/07/22 05:41:55;;;;;;;8.68;6.40;;;;;;;33.97;24.28;94737.53;5021855;28;20045;-75
2021/07/22 05:44:22;;;;;;;7.38;6.75;;;;;;;34.40;23.83;94736.41;5017001;28;20049;-75
2021/07/22 05:46:49;;;;;;;6.82;6.18;;;;;;;34.62;23.40;94737.31;5024122;28;20053;-76
2021/07/22 05:49:16;;;;;;;8.13;6.13;;;;;;;34.66;23.43;94737.19;5036190;28;20041;-76
2021/07/22 05:51:43;;;;;;;7.40;6.70;;;;;;;34.51;23.13;94742.28;5035341;28;20395;-76
2021/07/22 05:54:10;;;;;;;7.13;6.45;;;;;;;34.49;23.39;94740.00;5036432;28;20356;-75
2021/07/22 05:56:37;;;;;;;7.13;6.43;;;;;;;34.79;23.19;94738.72;5036473;28;20046;-75
2021/07/22 05:59:05;;;;;;;7.38;6.60;;;;;;;34.99;23.09;94740.50;5039909;28;20048;-76
2021/07/22 06:01:32;;;;;;;6.45;5.85;;;;;;;35.02;22.81;94739.63;5026192;28;20064;-76
2021/07/22 06:03:59;;;;;;;7.45;5.70;;;;;;;35.27;22.59;94744.28;5016499;28;20042;-76
2021/07/22 06:06:26;;;;;;;8.65;5.97;;;;;;;35.18;22.41;94747.69;5035564;28;20351;-75
2021/07/22 06:08:54;;;;;;;6.57;5.78;;;;;;;35.30;22.46;94757.00;5035985;28;20053;-75
2021/07/22 06:11:21;;;;;;;7.38;6.03;;;;;;;35.42;21.97;94748.88;5035990;28;20056;-75
2021/07/22 06:14:06;;;;;;;7.65;6.57;;;;;;;35.56;21.95;94746.88;5035424;28;20053;-74
2021/07/22 06:16:52;;;;;;;6.95;6.00;;;;;;;35.81;21.80;94741.38;5034700;28;20111;-75
2021/07/22 06:19:20;;;;;;;7.88;6.03;;;;;;;36.13;21.69;94746.50;5029551;28;20049;-74
2021/07/22 06:21:47;;;;;;;6.72;5.75;;;;;;;36.09;22.21;94748.59;5035822;28;20048;-74
2021/07/22 06:24:14;;;;;;;6.40;5.80;;;;;;;36.54;20.85;94752.84;5036037;28;20329;-75
2021/07/22 06:26:41;;;;;;;6.93;5.43;;;;;;;36.48;21.05;94754.66;5020510;28;20330;-74
2021/07/22 06:29:08;;;;;;;6.25;5.60;;;;;;;36.33;21.07;94748.19;5032707;28;20049;-75
2021/07/22 06:31:35;;;;;;;6.55;5.93;;;;;;;36.60;20.20;94751.06;5035039;28;20072;-73
2021/07/22 06:34:02;;;;;;;5.60;5.10;;;;;;;36.66;20.92;94759.41;5035502;28;20053;-73
2021/07/22 06:36:29;;;;;;;5.13;4.63;;;;;;;36.65;20.33;94752.44;5046930;28;20048;-73
2021/07/22 06:39:05;;;;;;;6.90;6.13;;;;;;;36.81;20.55;94759.69;5039347;28;20360;-74
2021/07/22 06:41:32;;;;;;;6.15;5.00;;;;;;;36.62;20.20;94754.09;5038213;28;20052;-73
2021/07/22 06:43:59;;;;;;;5.90;5.32;;;;;;;36.75;20.24;94757.53;5033433;28;20050;-74
2021/07/22 06:46:26;;;;;;;5.60;5.10;;;;;;;36.92;19.96;94754.59;5035593;28;20439;-72
2021/07/22 06:48:54;;;;;;;5.90;5.07;;;;;;;36.43;20.61;94755.19;5034890;28;20056;-73
2021/07/22 06:51:24;;;;;;;6.00;5.00;;;;;;;36.97;19.36;94767.66;5035183;28;20407;-73
2021/07/22 06:53:52;;;;;;;5.80;4.70;;;;;;;36.29;20.85;94759.16;5035125;28;20049;-73
2021/07/22 06:56:19;;;;;;;5.43;4.80;;;;;;;36.52;20.65;94754.50;5034842;28;20057;-73
2021/07/22 06:58:48;;;;;;;5.45;4.57;;;;;;;36.35;20.82;94749.25;5034907;28;20053;-73
2021/07/22 07:01:18;;;;;;;4.95;4.40;;;;;;;36.74;19.71;94756.00;5035501;28;20049;-73
2021/07/22 07:03:45;;;;;;;4.63;4.22;;;;;;;36.83;19.91;94746.38;5037097;28;20439;-72
2021/07/22 07:06:12;;;;;;;4.95;3.90;;;;;;;36.90;19.41;94740.66;5043832;28;20366;-72
2021/07/22 07:08:39;;;;;;;4.75;4.07;;;;;;;36.94;20.04;94749.44;5043390;28;20045;-72
2021/07/22 07:11:08;;;;;;;4.35;3.75;;;;;;;36.99;19.41;94741.47;5025720;28;20049;-72
2021/07/22 07:13:35;;;;;;;3.60;3.30;;;;;;;37.37;18.51;94742.38;5014884;28;20057;-73
2021/07/22 07:16:06;;;;;;;4.45;3.95;;;;;;;37.39;18.14;94737.22;5015223;28;20060;-73
2021/07/22 07:18:33;;;;;;;7.57;3.80;;;;;;;37.45;18.01;94740.88;5025634;28;20045;-72
2021/07/22 07:21:04;;;;;;;4.25;3.75;;;;;;;37.36;18.53;94738.88;5035067;28;20049;-73
2021/07/22 07:23:32;;;;;;;4.25;3.88;;;;;;;37.74;18.32;94732.31;5036789;28;20056;-73
2021/07/22 07:26:00;;;;;;;3.78;3.47;;;;;;;37.48;18.07;94723.63;5034934;28;20052;-73
2021/07/22 07:28:27;;;;;;;5.00;3.92;;;;;;;37.84;17.68;94729.13;5034263;28;20049;-73
2021/07/22 07:30:54;;;;;;;4.47;4.03;;;;;;;37.67;17.96;94725.16;5027590;28;20049;-73
2021/07/22 07:33:22;;;;;;;4.63;3.47;;;;;;;37.73;18.42;94723.34;5034490;28;20049;-73
2021/07/22 07:35:49;;;;;;;3.95;3.55;;;;;;;37.97;17.77;94726.25;5040272;28;20045;-72
2021/07/22 07:38:17;;;;;;;4.00;3.60;;;;;;;38.00;17.02;94724.56;5040607;28;20052;-72
2021/07/22 07:40:44;;;;;;;4.20;3.80;;;;;;;38.48;16.98;94726.38;5034121;28;20380;-71
2021/07/22 07:43:19;;;;;;;6.10;3.97;;;;;;;37.98;16.90;94716.84;5034726;28;20132;-72
2021/07/22 07:45:47;;;;;;;5.78;3.80;;;;;;;38.18;16.98;94727.34;5014801;28;20379;-72
2021/07/22 07:48:14;;;;;;;3.90;3.50;;;;;;;38.01;17.12;94720.66;5022477;28;20060;-72
2021/07/22 07:50:41;;;;;;;4.68;3.42;;;;;;;38.32;16.60;94718.53;5034072;28;20795;-73
2021/07/22 07:53:15;;;;;;;4.70;4.28;;;;;;;39.04;17.00;94718.81;5034463;28;20498;-62
2021/07/22 07:55:43;;;;;;;5.05;3.90;;;;;;;38.74;16.58;94717.84;5034174;28;20359;-64
2021/07/22 07:58:10;;;;;;;4.00;3.60;;;;;;;38.97;16.34;94722.59;5034559;28;20056;-63
2021/07/22 08:00:38;;;;;;;4.97;3.60;;;;;;;38.44;16.29;94714.84;5033845;28;20483;-62
2021/07/22 08:03:06;;;;;;;4.65;3.80;;;;;;;38.12;17.14;94718.22;5034290;28;20057;-64
2021/07/22 08:05:33;;;;;;;4.00;3.53;;;;;;;38.54;17.14;94719.09;5037695;28;20041;-65
2021/07/22 08:08:00;;;;;;;4.43;3.42;;;;;;;38.68;16.77;94717.69;5049857;28;20049;-62
2021/07/22 08:10:27;;;;;;;7.40;3.50;;;;;;;38.18;16.89;94719.16;5033843;28;20049;-64
2021/07/22 08:12:54;;;;;;;7.28;2.90;;;;;;;38.35;16.77;94714.88;5033987;28;20060;-67
2021/07/22 08:15:21;;;;;;;6.75;3.88;;;;;;;39.54;16.08;94719.91;5032728;28;20049;-65
2021/07/22 08:17:48;;;;;;;4.70;3.35;;;;;;;39.41;16.31;94722.13;5015376;28;20057;-61
2021/07/22 08:20:16;;;;;;;7.85;3.58;;;;;;;39.16;16.13;94729.53;5020164;28;20381;-64
2021/07/22 08:22:43;;;;;;;4.20;2.80;;;;;;;39.58;15.91;94731.47;5033636;28;20049;-64
2021/07/22 08:25:11;;;;;;;3.40;3.10;;;;;;;39.01;16.11;94728.66;5017191;28;20042;-63
2021/07/22 08:27:38;;;;;;;3.13;2.83;;;;;;;38.67;16.07;94726.34;5014384;28;20046;-64
2021/07/22 08:30:06;;;;;;;4.85;2.90;;;;;;;38.80;16.01;94730.44;5015615;28;20052;-63
2021/07/22 08:32:33;;;;;;;4.03;2.97;;;;;;;38.89;15.84;94732.34;5033357;28;20490;-64
2021/07/22 08:35:00;;;;;;;3.20;2.90;;;;;;;39.00;15.98;94721.69;5033861;28;20056;-62
2021/07/22 08:37:27;;;;;;;4.40;2.80;;;;;;;39.32;15.81;94728.41;5041637;28;20053;-63
2021/07/22 08:40:02;;;;;;;3.75;3.40;;;;;;;39.20;16.30;94737.56;5035736;28;20052;-64
2021/07/22 08:42:35;;;;;;;5.88;3.28;;;;;;;39.44;16.06;94737.59;5030253;28;20088;-62
2021/07/22 08:45:03;;;;;;;9.25;7.80;;;;;;;38.72;16.18;94734.69;5035473;28;20042;-64
2021/07/22 08:47:31;;;;;;;4.70;4.20;;;;;;;38.92;16.38;94731.44;5017559;28;20049;-60
2021/07/22 08:49:59;;;;;;;5.03;3.67;;;;;;;39.05;16.61;94729.25;5017459;28;20054;-64
2021/07/22 08:52:27;;;;;;;4.72;3.38;;;;;;;39.27;15.88;94728.25;5036647;28;20405;-62
2021/07/22 08:54:54;;;;;;;3.92;3.53;;;;;;;39.11;16.46;94724.72;5027668;28;20049;-64
2021/07/22 08:57:32;;;;;;;3.83;3.03;;;;;;;39.05;15.59;94726.53;5049227;28;20069;-65
2021/07/22 09:00:01;;;;;;;3.90;2.83;;;;;;;38.93;16.23;94727.47;5017723;28;20444;-62
2021/07/22 09:02:30;;;;;;;3.70;2.90;;;;;;;39.05;15.16;94728.50;5036684;28;20675;-64
2021/07/22 09:04:59;;;;;;;3.40;2.80;;;;;;;39.33;15.78;94726.44;5037447;28;20052;-64
2021/07/22 09:07:28;;;;;;;3.42;2.70;;;;;;;38.97;15.89;94728.06;5056570;28;20045;-60
2021/07/22 09:10:07;;;;;;;3.30;2.70;;;;;;;39.22;16.19;94726.91;5057342;28;20717;-64
2021/07/22 09:12:36;;;;;;;3.00;2.80;;;;;;;39.03;16.26;94720.00;5029256;28;20103;-65
2021/07/22 09:15:05;;;;;;;5.07;3.10;;;;;;;39.42;15.87;94713.44;5036807;28;20057;-61
2021/07/22 09:17:32;;;;;;;4.03;3.30;;;;;;;39.53;15.60;94715.69;5037040;28;20045;-64
2021/07/22 09:19:59;;;;;;;4.47;2.97;;;;;;;39.40;14.95;94717.88;5037066;28;20056;-61
2021/07/22 09:22:36;;;;;;;4.88;3.58;;;;;;;39.06;15.98;94708.94;5036193;28;20072;-62
2021/07/22 09:25:04;;;;;;;4.30;3.75;;;;;;;39.05;15.62;94715.59;5036841;28;20056;-63
2021/07/22 09:27:42;;;;;;;3.58;2.80;;;;;;;39.29;15.46;94712.91;5036480;28;20049;-62
2021/07/22 09:30:18;;;;;;;3.15;2.85;;;;;;;38.99;15.72;94713.94;5036619;28;20111;-63
2021/07/22 09:32:48;;;;;;;4.10;3.65;;;;;;;39.01;16.06;94715.00;5030113;28;20460;-63
2021/07/22 09:35:16;;;;;;;5.40;3.03;;;;;;;38.87;15.76;94707.47;5036628;28;20053;-65
2021/07/22 09:37:54;;;;;;;6.63;5.30;;;;;;;38.47;16.18;94713.19;5042617;28;20049;-64
2021/07/22 09:40:27;;;;;;;4.97;3.80;;;;;;;38.51;16.50;94714.53;5036116;28;20049;-62
2021/07/22 09:42:55;;;;;;;5.60;3.05;;;;;;;37.64;17.24;94712.41;5034636;28;20683;-64
2021/07/22 09:45:28;;;;;;;4.75;3.45;;;;;;;37.65;17.18;94709.25;5036590;28;20053;-64
2021/07/22 09:47:56;;;;;;;3.40;3.10;;;;;;;37.17;17.63;94710.78;5029776;28;20062;-63
2021/07/22 09:50:25;;;;;;;3.47;3.17;;;;;;;37.50;17.28;94710.28;5049225;28;20058;-61
2021/07/22 09:53:12;;;;;;;3.60;3.20;;;;;;;37.61;17.31;94710.59;5036240;28;20049;-62
2021/07/22 09:55:41;;;;;;;3.60;2.90;;;;;;;37.31;17.53;94710.25;5035803;28;20479;-63
2021/07/22 09:58:10;;;;;;;4.13;3.00;;;;;;;37.37;17.10;94704.97;5036121;28;20056;-59
2021/07/22 10:00:40;;;;;;;3.25;2.92;;;;;;;37.01;17.65;94708.31;5034239;28;20064;-60
2021/07/22 10:03:19;;;;;;;3.37;3.00;;;;;;;38.03;16.54;94707.31;5035695;28;20042;-64
2021/07/22 10:06:02;;;;;;;4.40;2.90;;;;;;;37.75;16.86;94710.06;5041885;28;20052;-61
2021/07/22 10:08:33;;;;;;;3.13;2.60;;;;;;;37.47;16.83;94701.03;5054805;28;20355;-59
2021/07/22 10:11:05;;;;;;;3.17;2.80;;;;;;;37.31;17.31;94699.34;5049458;28;20049;-60
2021/07/22 10:13:39;;;;;;;3.45;2.50;;;;;;;37.60;17.06;94696.22;5035943;28;20049;-60
2021/07/22 10:16:10;;;;;;;3.08;2.55;;;;;;;37.22;17.13;94707.50;5036277;28;20064;-57
2021/07/22 10:18:46;;;;;;;3.58;2.75;;;;;;;37.55;17.10;94698.78;5035662;28;20041;-59
2021/07/22 10:21:15;;;;;;;2.80;2.25;;;;;;;37.58;16.05;94695.16;5035269;28;20042;-56
2021/07/22 10:23:43;;;;;;;2.38;2.17;;;;;;;37.49;16.85;94700.59;5034146;28;20052;-58
2021/07/22 10:26:11;;;;;;;2.67;2.47;;;;;;;37.62;16.83;94701.22;5035439;28;20045;-58
2021/07/22 10:28:39;;;;;;;3.35;2.28;;;;;;;37.17;16.83;94696.41;5035466;28;20056;-64
2021/07/22 10:31:08;;;;;;;2.90;2.47;;;;;;;37.54;17.56;94700.75;5033937;28;20054;-64
2021/07/22 10:33:37;;;;;;;3.75;2.10;;;;;;;38.07;16.37;94699.72;5035160;28;20345;-64
2021/07/22 10:36:06;;;;;;;2.42;2.03;;;;;;;38.57;15.89;94701.03;5043084;28;20055;-64
2021/07/22 10:38:48;;;;;;;3.22;2.17;;;;;;;38.02;15.83;94686.69;5034290;28;20049;-63
2021/07/22 10:41:36;;;;;;;2.20;2.00;;;;;;;38.01;15.73;94691.41;5034742;28;20046;-62
2021/07/22 10:44:05;;;;;;;2.60;2.17;;;;;;;38.16;15.68;94686.06;5016009;28;20058;-63
2021/07/22 10:46:53;;;;;;;2.10;1.88;;;;;;;38.23;14.76;94691.22;5015808;28;20057;-63
2021/07/22 10:49:40;;;;;;;2.00;1.80;;;;;;;37.88;15.73;94694.28;5015388;28;20061;-56
2021/07/22 10:52:10;;;;;;;2.22;1.88;;;;;;;37.78;16.16;94687.31;5028344;28;20049;-59
2021/07/22 10:54:51;;;;;;;3.63;1.75;;;;;;;38.06;16.46;94687.31;5022888;28;20046;-63
2021/07/22 10:57:35;;;;;;;2.47;2.28;;;;;;;38.48;16.04;94682.69;5016137;28;20056;-60
2021/07/22 11:00:09;;;;;;;2.35;2.08;;;;;;;38.65;15.94;94672.19;5015545;28;20057;-62
2021/07/22 11:02:45;;;;;;;2.42;2.22;;;;;;;38.99;15.43;94670.22;5032693;28;20056;-60
2021/07/22 11:05:24;;;;;;;3.22;2.20;;;;;;;39.00;15.62;94661.56;5035800;28;20037;-59
2021/07/22 11:08:18;;;;;;;3.67;2.30;;;;;;;39.21;15.13;94664.50;5055446;28;20501;-59
2021/07/22 11:10:54;;;;;;;3.90;1.92;;;;;;;38.50;15.23;94671.28;5051506;28;20051;-65
2021/07/22 11:13:37;;;;;;;2.25;1.70;;;;;;;38.60;15.28;94669.31;5034391;28;20494;-62
2021/07/22 11:16:06;;;;;;;2.55;2.03;;;;;;;38.72;15.13;94665.63;5034780;28;20061;-62
2021/07/22 11:18:51;;;;;;;2.15;1.70;;;;;;;39.32;14.48;94654.59;5034618;28;20052;-57
2021/07/22 11:21:36;;;;;;;2.55;2.00;;;;;;;39.34;14.47;94656.84;5027444;28;20444;-61
2021/07/22 11:24:03;;;;;;;3.92;1.92;;;;;;;38.97;14.51;94651.56;5015130;28;20049;-61
2021/07/22 11:26:34;;;;;;;1.88;1.65;;;;;;;38.50;15.56;94647.47;5014801;28;20112;-60
2021/07/22 11:29:02;;;;;;;;;;;;;;;38.91;15.13;94656.16;5016030;28;20053;-63
2021/07/22 11:31:33;;;;;;;2.10;1.83;;;;;;;38.49;15.31;94656.88;5021735;28;19928;-60
2021/07/22 11:34:02;;;;;;;2.22;1.90;;;;;;;38.44;15.85;94652.06;5035059;28;20351;-60
2021/07/22 11:36:31;;;;;;;2.78;2.10;;;;;;;38.33;15.88;94649.06;5040837;28;20041;-57
2021/07/22 11:38:59;;;;;;;3.83;2.25;;;;;;;38.15;16.00;94649.81;5014695;28;20429;-64
2021/07/22 11:41:28;;;;;;;3.38;2.10;;;;;;;37.05;16.75;94655.22;5014972;28;20046;-60
2021/07/22 11:44:01;;;;;;;2.50;2.10;;;;;;;36.62;17.50;94649.88;5016828;28;20053;-59
2021/07/22 11:46:34;;;;;;;2.70;1.92;;;;;;;37.05;17.24;94652.50;5015377;28;20041;-61
2021/07/22 11:49:14;;;;;;;3.58;2.25;;;;;;;37.61;17.08;94642.44;5014601;28;20054;-58
2021/07/22 11:51:48;;;;;;;2.35;2.15;;;;;;;37.71;17.58;94640.44;5019969;28;20049;-59
2021/07/22 11:54:20;;;;;;;3.67;2.25;;;;;;;37.75;17.09;94647.31;5034256;28;20045;-62
2021/07/22 11:56:51;;;;;;;4.35;3.85;;;;;;;37.55;17.40;94642.28;5033485;28;20049;-64
2021/07/22 11:59:18;;;;;;;5.30;2.38;;;;;;;37.84;16.89;94635.63;5033789;28;20436;-52